Tongeren, Belgium
Current Conditions -  °F | °C
As of 2:20 PM on Friday 19 Dec 2014 (Local Time) from EBLG Reporting Station
Light Rain Light Rain  
Wind Chill: 41°   Ceiling: 1100
Heat Index: 46°   Visibility: 6mi
Dew Point: 45°   Wind: 13mph
Humidity: 93%   Direction: 310°NW
Pressure: 29.94"   Gusts: NA
Location:  50.78°N, 5.46°E
Report Text: EBLG 191320Z 31011KT 9000 -RA SCT004 BKN011 08/07 Q1014 TEMPO 4000 RA BKN008
Loading
Personal Weather Stations






























Interactive Weather Map New forecast layout! Learn more

10-Day Weather Forecast

Advertisements
Track Severe Weather on mobile